Time;durP1;ratioP1;P1;durP2;ratioP2;P2;SDS_P1;SDS_P2;PMS_P1;PMS_P2;Temp;Humidity;BMP_temperature;BMP_pressure;BME280_temperature;BME280_humidity;BME280_pressure;Samples;Min_cycle;Max_cycle;Signal;HPM_P1;HPM_P2
2022/05/19 00:02:06;;;;;;;4.20;3.87;;;23.20;79.50;;;;;;5048930;28;20462;-70
2022/05/19 00:04:34;;;;;;;3.90;3.60;;;23.20;79.40;;;;;;5048822;28;20457;-70
2022/05/19 00:07:00;;;;;;;3.57;3.27;;;23.20;79.40;;;;;;5042150;28;20453;-70
2022/05/19 00:09:26;;;;;;;3.67;3.37;;;23.20;79.40;;;;;;5050974;28;20449;-70
2022/05/19 00:11:54;;;;;;;3.97;3.67;;;23.10;79.30;;;;;;5041588;28;20540;-69
2022/05/19 00:14:21;;;;;;;4.43;4.10;;;23.10;79.40;;;;;;5052769;28;20472;-70
2022/05/19 00:16:47;;;;;;;3.90;3.60;;;23.10;79.40;;;;;;5051217;28;20454;-70
2022/05/19 00:19:14;;;;;;;3.93;3.60;;;23.00;79.70;;;;;;5041663;28;20546;-69
2022/05/19 00:21:40;;;;;;;3.70;3.40;;;22.90;79.70;;;;;;5043014;28;20472;-66
2022/05/19 00:24:07;;;;;;;3.83;3.50;;;23.00;79.70;;;;;;5046888;28;20446;-70
2022/05/19 00:26:32;;;;;;;3.80;3.50;;;22.90;79.60;;;;;;5053412;28;20489;-70
2022/05/19 00:28:58;;;;;;;4.20;3.87;;;22.90;79.80;;;;;;5043345;28;20927;-69
2022/05/19 00:31:24;;;;;;;3.70;3.40;;;22.90;79.70;;;;;;5020330;28;20218;-70
2022/05/19 00:33:49;;;;;;;3.43;3.23;;;22.80;79.60;;;;;;5050527;28;20583;-70
2022/05/19 00:36:18;;;;;;;4.30;3.90;;;22.80;80.10;;;;;;5043891;28;20277;-68
2022/05/19 00:38:44;;;;;;;4.73;4.37;;;22.80;80.10;;;;;;5052306;28;20212;-68
2022/05/19 00:41:12;;;;;;;4.47;4.17;;;22.70;80.00;;;;;;5042171;28;20551;-68
2022/05/19 00:43:41;;;;;;;4.90;3.83;;;22.70;80.20;;;;;;5044275;28;20450;-69
2022/05/19 00:46:10;;;;;;;3.37;3.07;;;22.70;80.40;;;;;;5050674;28;20442;-69
2022/05/19 00:48:44;;;;;;;4.10;3.80;;;22.60;80.20;;;;;;5051131;28;21056;-68
2022/05/19 00:51:11;;;;;;;4.30;3.90;;;22.60;80.20;;;;;;5051143;28;20460;-69
2022/05/19 00:53:49;;;;;;;4.90;3.80;;;22.60;80.30;;;;;;5045104;28;20451;-69
2022/05/19 00:56:48;;;;;;;4.17;3.77;;;22.50;80.30;;;;;;5049961;28;20507;-70
2022/05/19 00:59:23;;;;;;;4.50;4.10;;;22.50;80.50;;;;;;5040587;28;20449;-68
2022/05/19 01:01:50;;;;;;;3.77;3.40;;;22.40;80.60;;;;;;5050718;28;20466;-68
2022/05/19 01:04:18;;;;;;;4.33;4.03;;;22.30;80.80;;;;;;5033130;28;20457;-70
2022/05/19 01:06:47;;;;;;;4.17;3.77;;;22.30;80.80;;;;;;5049977;28;20830;-69
2022/05/19 01:09:15;;;;;;;4.40;3.97;;;22.30;80.90;;;;;;5066184;28;20474;-69
2022/05/19 01:11:41;;;;;;;4.03;3.73;;;22.30;80.90;;;;;;5051035;28;20464;-67
2022/05/19 01:14:08;;;;;;;4.93;3.63;;;22.30;80.90;;;;;;5051534;28;20454;-68
2022/05/19 01:16:35;;;;;;;4.30;3.63;;;22.20;81.00;;;;;;5043843;28;20469;-68
2022/05/19 01:19:05;;;;;;;4.97;4.53;;;22.20;80.90;;;;;;5051137;28;20500;-69
2022/05/19 01:21:32;;;;;;;4.40;4.07;;;22.20;81.80;;;;;;5043532;28;20466;-69
2022/05/19 01:24:11;;;;;;;5.60;4.03;;;22.10;81.00;;;;;;5050758;28;20457;-68
2022/05/19 01:26:47;;;;;;;4.87;4.43;;;22.10;81.10;;;;;;5052620;28;20811;-68
2022/05/19 01:29:17;;;;;;;3.33;3.03;;;21.90;81.20;;;;;;5051230;28;20461;-67
2022/05/19 01:31:51;;;;;;;4.37;4.07;;;22.00;81.40;;;;;;5052479;28;20461;-70
2022/05/19 01:34:19;;;;;;;4.83;4.43;;;22.00;81.40;;;;;;5063344;28;20878;-70
2022/05/19 01:36:46;;;;;;;4.60;4.10;;;22.00;81.50;;;;;;5049790;28;20458;-69
2022/05/19 01:39:19;;;;;;;4.27;3.87;;;21.90;81.40;;;;;;5041483;28;20471;-69
2022/05/19 01:42:09;;;;;;;4.73;4.33;;;21.90;81.30;;;;;;5037904;28;20836;-72
2022/05/19 01:44:43;;;;;;;3.90;3.50;;;21.90;81.50;;;;;;5049447;28;20470;-69
2022/05/19 01:47:36;;;;;;;3.90;3.60;;;21.90;81.40;;;;;;5031833;28;20457;-69
2022/05/19 01:50:20;;;;;;;4.40;4.00;;;21.90;81.90;;;;;;5046583;28;20459;-68
2022/05/19 01:53:00;;;;;;;4.17;3.83;;;21.90;81.80;;;;;;5026667;28;20544;-68
2022/05/19 01:55:51;;;;;;;4.10;3.80;;;21.80;81.70;;;;;;5054400;28;20517;-69
2022/05/19 01:58:25;;;;;;;3.90;3.60;;;21.80;81.70;;;;;;5043531;28;20459;-68
2022/05/19 02:00:55;;;;;;;4.40;4.00;;;21.70;81.80;;;;;;5046759;28;20477;-69
2022/05/19 02:03:32;;;;;;;6.40;4.10;;;21.70;81.90;;;;;;5050815;28;20459;-69
2022/05/19 02:06:14;;;;;;;4.90;4.10;;;21.60;81.80;;;;;;5050329;28;20475;-69
2022/05/19 02:08:56;;;;;;;4.10;3.80;;;21.60;81.90;;;;;;5052410;28;20454;-68
2022/05/19 02:11:29;;;;;;;4.20;3.90;;;21.60;81.90;;;;;;5049699;28;20445;-69
2022/05/19 02:14:00;;;;;;;4.80;4.00;;;21.50;82.00;;;;;;5036784;28;20522;-69
2022/05/19 02:16:27;;;;;;;4.40;4.00;;;21.50;82.10;;;;;;5060543;28;20511;-68
2022/05/19 02:18:53;;;;;;;4.23;3.93;;;21.50;82.10;;;;;;5049521;28;20470;-67
2022/05/19 02:21:20;;;;;;;4.07;3.77;;;21.50;82.10;;;;;;5050613;28;20550;-68
2022/05/19 02:23:46;;;;;;;4.57;4.20;;;21.40;82.30;;;;;;5050013;28;20458;-69
2022/05/19 02:26:12;;;;;;;4.83;4.43;;;21.40;82.40;;;;;;5047787;28;20534;-69
2022/05/19 02:28:55;;;;;;;5.93;4.30;;;21.30;82.20;;;;;;5048532;28;20542;-69
2022/05/19 02:31:22;;;;;;;4.37;4.00;;;21.30;82.20;;;;;;5058744;28;20219;-68
2022/05/19 02:33:47;;;;;;;4.80;4.27;;;21.30;82.40;;;;;;5027067;28;20997;-68
2022/05/19 02:36:13;;;;;;;6.63;4.27;;;21.30;82.40;;;;;;5050724;28;20661;-68
2022/05/19 02:38:39;;;;;;;4.77;4.37;;;21.30;82.50;;;;;;5045365;28;20232;-68
2022/05/19 02:41:05;;;;;;;4.33;3.93;;;21.20;82.60;;;;;;5033939;28;20304;-69
2022/05/19 02:43:31;;;;;;;4.17;3.87;;;21.20;82.70;;;;;;5039972;28;20243;-72
2022/05/19 02:45:57;;;;;;;4.60;4.20;;;21.20;82.80;;;;;;5048628;28;20497;-69
2022/05/19 02:48:23;;;;;;;4.90;4.40;;;21.10;82.70;;;;;;5049595;28;20648;-68
2022/05/19 02:50:50;;;;;;;5.17;4.67;;;21.10;82.90;;;;;;5036645;28;20227;-70
2022/05/19 02:53:18;;;;;;;4.90;4.40;;;21.10;82.90;;;;;;5031992;28;20455;-69
2022/05/19 02:55:44;;;;;;;5.00;4.50;;;21.10;82.90;;;;;;5044783;28;20455;-69
2022/05/19 02:58:12;;;;;;;7.00;4.20;;;21.10;83.00;;;;;;5028399;28;20963;-69
2022/05/19 03:00:40;;;;;;;4.13;3.83;;;21.00;83.20;;;;;;5040353;28;20506;-70
2022/05/19 03:03:06;;;;;;;4.70;4.30;;;20.70;83.40;;;;;;5047876;28;20445;-69
2022/05/19 03:05:33;;;;;;;4.53;4.23;;;20.70;84.00;;;;;;5051932;28;20469;-70
2022/05/19 03:07:59;;;;;;;4.87;4.47;;;20.80;83.80;;;;;;5049308;28;20219;-70
2022/05/19 03:10:25;;;;;;;4.73;4.33;;;20.80;84.10;;;;;;5049354;28;20446;-68
2022/05/19 03:12:54;;;;;;;4.13;3.83;;;20.80;84.10;;;;;;5044699;28;20282;-69
2022/05/19 03:15:20;;;;;;;4.70;3.80;;;20.80;83.70;;;;;;5028347;28;20538;-70
2022/05/19 03:17:45;;;;;;;4.87;4.00;;;20.80;83.80;;;;;;5028016;28;20539;-70
2022/05/19 03:20:12;;;;;;;4.80;4.40;;;20.80;83.90;;;;;;5039740;28;20708;-69
2022/05/19 03:22:38;;;;;;;6.03;4.47;;;20.80;84.00;;;;;;5048885;28;20224;-70
2022/05/19 03:25:06;;;;;;;9.80;5.20;;;20.80;84.10;;;;;;5048903;28;20450;-71
2022/05/19 03:27:32;;;;;;;5.17;4.77;;;20.70;83.80;;;;;;5039597;28;20478;-68
2022/05/19 03:29:58;;;;;;;6.03;4.37;;;20.70;84.20;;;;;;5048545;28;20446;-69
2022/05/19 03:32:24;;;;;;;11.43;5.17;;;20.70;83.80;;;;;;5033247;28;21014;-69
2022/05/19 03:34:49;;;;;;;5.37;4.87;;;20.70;84.40;;;;;;5041920;28;20212;-68
2022/05/19 03:37:16;;;;;;;5.83;3.97;;;20.60;84.30;;;;;;5046063;28;20471;-68
2022/05/19 03:39:43;;;;;;;5.43;4.93;;;20.50;84.70;;;;;;5045016;28;20528;-69
2022/05/19 03:42:09;;;;;;;5.47;4.30;;;20.50;84.70;;;;;;5048084;28;20228;-72
2022/05/19 03:44:36;;;;;;;4.83;4.40;;;20.40;84.90;;;;;;5047196;28;20469;-71
2022/05/19 03:47:03;;;;;;;4.80;4.40;;;20.40;84.80;;;;;;5048133;28;20223;-69
2022/05/19 03:49:28;;;;;;;4.17;3.83;;;20.50;84.90;;;;;;5048759;28;20462;-68
2022/05/19 03:51:54;;;;;;;5.20;4.07;;;20.50;85.30;;;;;;5028939;28;20463;-68
2022/05/19 03:54:20;;;;;;;4.43;4.03;;;20.40;84.80;;;;;;5037221;28;20216;-69
2022/05/19 03:56:46;;;;;;;4.77;4.30;;;20.40;85.00;;;;;;5040621;28;20238;-69
2022/05/19 03:59:11;;;;;;;5.77;5.27;;;20.40;84.90;;;;;;5040171;28;20216;-69
2022/05/19 04:01:39;;;;;;;5.80;5.17;;;20.40;84.90;;;;;;5047661;28;20699;-69
2022/05/19 04:04:05;;;;;;;5.73;5.20;;;20.40;85.00;;;;;;5047556;28;20219;-69
2022/05/19 04:06:34;;;;;;;5.23;4.73;;;20.30;85.30;;;;;;5045587;28;20450;-68
2022/05/19 04:09:00;;;;;;;6.27;4.67;;;20.30;85.40;;;;;;5048235;28;20454;-70
2022/05/19 04:11:26;;;;;;;4.97;4.57;;;20.30;85.50;;;;;;5041645;28;20965;-68
2022/05/19 04:13:53;;;;;;;5.30;4.90;;;20.30;85.60;;;;;;5033886;28;20482;-69
2022/05/19 04:16:19;;;;;;;5.17;4.77;;;20.30;85.60;;;;;;5028218;28;20498;-69
2022/05/19 04:18:44;;;;;;;4.70;4.30;;;20.30;86.00;;;;;;5041533;28;20462;-68
2022/05/19 04:21:10;;;;;;;5.40;4.80;;;20.20;85.90;;;;;;5046885;28;20810;-69
2022/05/19 04:23:36;;;;;;;4.53;4.13;;;20.20;86.10;;;;;;5047300;28;20634;-70
2022/05/19 04:26:02;;;;;;;6.00;5.53;;;20.20;86.00;;;;;;5047042;28;20537;-70
2022/05/19 04:28:28;;;;;;;5.03;4.63;;;20.20;86.30;;;;;;5045447;28;20557;-68
2022/05/19 04:30:53;;;;;;;5.60;5.10;;;20.20;86.50;;;;;;5045875;28;20220;-68
2022/05/19 04:33:19;;;;;;;6.20;4.80;;;20.20;86.50;;;;;;5042296;28;20572;-68
2022/05/19 04:35:45;;;;;;;4.67;4.23;;;20.20;86.40;;;;;;5046533;28;20801;-69
2022/05/19 04:38:13;;;;;;;5.27;4.87;;;20.20;86.60;;;;;;5045114;28;20220;-70
2022/05/19 04:40:41;;;;;;;8.40;5.17;;;20.10;87.20;;;;;;5029481;28;20403;-69
2022/05/19 04:43:08;;;;;;;5.10;4.70;;;20.10;87.70;;;;;;5035484;28;20451;-69
2022/05/19 04:45:34;;;;;;;4.33;4.03;;;20.10;87.60;;;;;;5055200;28;20523;-68
2022/05/19 04:47:59;;;;;;;6.20;5.60;;;20.10;88.10;;;;;;5045903;28;20541;-67
2022/05/19 04:50:25;;;;;;;5.77;4.97;;;20.10;87.60;;;;;;5051391;28;20303;-68
2022/05/19 04:52:51;;;;;;;6.27;5.67;;;20.10;87.60;;;;;;5036033;28;20762;-69
2022/05/19 04:55:17;;;;;;;6.13;5.53;;;20.10;88.00;;;;;;5042289;28;20310;-70
2022/05/19 04:57:44;;;;;;;5.53;5.03;;;20.10;88.30;;;;;;5049236;28;20546;-66
2022/05/19 05:00:13;;;;;;;6.00;5.50;;;20.10;87.50;;;;;;5046559;28;20349;-68
2022/05/19 05:02:40;;;;;;;5.90;5.37;;;20.10;88.10;;;;;;5044926;28;20463;-67
2022/05/19 05:05:09;;;;;;;5.50;5.00;;;20.10;88.10;;;;;;5045384;28;20488;-68
2022/05/19 05:07:34;;;;;;;5.70;5.17;;;20.10;88.40;;;;;;5036714;28;20446;-67
2022/05/19 05:10:00;;;;;;;5.20;4.70;;;20.10;88.50;;;;;;5048072;28;20477;-68
2022/05/19 05:12:26;;;;;;;5.37;4.73;;;20.10;88.60;;;;;;5045955;28;20223;-68
2022/05/19 05:14:53;;;;;;;5.67;4.90;;;20.00;89.30;;;;;;5048920;28;20219;-68
2022/05/19 05:17:21;;;;;;;6.30;5.23;;;20.00;88.90;;;;;;5039833;28;20451;-69
2022/05/19 05:19:47;;;;;;;5.73;5.27;;;20.00;89.60;;;;;;5048438;28;20448;-70
2022/05/19 05:22:13;;;;;;;8.20;5.40;;;20.00;89.60;;;;;;5037625;28;20460;-69
2022/05/19 05:24:39;;;;;;;6.40;5.43;;;20.00;89.30;;;;;;5038996;28;20867;-69
2022/05/19 05:27:05;;;;;;;5.80;5.30;;;20.10;89.50;;;;;;5049223;28;20512;-71
2022/05/19 05:29:34;;;;;;;5.37;4.80;;;20.10;90.00;;;;;;5019543;28;20772;-69
2022/05/19 05:32:00;;;;;;;8.20;5.10;;;20.10;90.00;;;;;;5037587;28;20469;-69
2022/05/19 05:34:26;;;;;;;6.27;5.60;;;20.10;89.90;;;;;;5026963;28;20836;-68
2022/05/19 05:36:52;;;;;;;5.17;4.70;;;20.10;90.00;;;;;;5042984;28;20216;-69
2022/05/19 05:39:18;;;;;;;5.57;5.07;;;20.10;90.00;;;;;;5037582;28;20541;-70
2022/05/19 05:41:44;;;;;;;7.37;5.10;;;20.10;89.50;;;;;;5042863;28;20225;-70
2022/05/19 05:44:11;;;;;;;6.20;5.30;;;20.20;89.70;;;;;;5040803;28;20338;-73
2022/05/19 05:46:40;;;;;;;5.87;5.37;;;20.20;89.90;;;;;;5053763;28;20517;-68
2022/05/19 05:49:07;;;;;;;7.90;5.30;;;20.20;90.00;;;;;;5043230;28;20608;-69
2022/05/19 05:51:33;;;;;;;5.67;5.13;;;20.20;90.10;;;;;;5063716;28;20549;-68
2022/05/19 05:53:58;;;;;;;7.17;5.40;;;20.30;90.20;;;;;;5047222;28;20542;-69
2022/05/19 05:56:24;;;;;;;5.50;5.00;;;20.30;90.30;;;;;;5054819;28;20232;-72
2022/05/19 05:58:50;;;;;;;5.87;5.30;;;20.30;90.10;;;;;;5035398;28;20248;-69
2022/05/19 06:01:20;;;;;;;5.50;5.10;;;20.40;90.10;;;;;;5040247;28;20223;-69
2022/05/19 06:03:47;;;;;;;7.87;5.37;;;20.40;90.20;;;;;;5037264;28;20462;-69
2022/05/19 06:06:14;;;;;;;7.43;5.50;;;20.40;90.20;;;;;;5035498;28;20459;-69
2022/05/19 06:08:41;;;;;;;7.17;5.50;;;20.50;90.40;;;;;;5033772;28;20463;-69
2022/05/19 06:11:07;;;;;;;6.00;5.40;;;20.50;90.30;;;;;;5034826;28;20443;-70
2022/05/19 06:13:33;;;;;;;5.70;5.17;;;20.50;90.30;;;;;;5038007;28;21007;-70
2022/05/19 06:15:59;;;;;;;5.23;4.83;;;20.50;90.50;;;;;;5038759;28;20530;-69
2022/05/19 06:18:27;;;;;;;5.27;4.70;;;20.60;90.30;;;;;;5041939;28;20548;-69
2022/05/19 06:20:54;;;;;;;5.73;5.20;;;20.60;90.50;;;;;;5038632;28;20236;-70
2022/05/19 06:23:20;;;;;;;5.23;4.83;;;20.60;90.60;;;;;;5030101;28;20474;-69
2022/05/19 06:25:46;;;;;;;5.00;4.60;;;20.70;90.50;;;;;;5039682;28;21026;-69
2022/05/19 06:28:13;;;;;;;5.70;4.37;;;20.80;90.70;;;;;;5037049;28;20708;-69
2022/05/19 06:30:39;;;;;;;5.53;4.70;;;20.80;91.10;;;;;;5041534;28;20541;-69
2022/05/19 06:33:07;;;;;;;4.57;4.17;;;20.90;91.10;;;;;;5038485;28;20451;-69
2022/05/19 06:35:34;;;;;;;6.03;5.47;;;21.00;90.80;;;;;;5043285;28;20836;-69
2022/05/19 06:38:00;;;;;;;7.60;4.93;;;21.00;90.70;;;;;;5037038;28;20455;-69
2022/05/19 06:40:28;;;;;;;5.47;5.00;;;21.00;90.60;;;;;;5039834;28;20857;-69
2022/05/19 06:42:54;;;;;;;5.00;4.50;;;21.10;91.10;;;;;;5033804;28;20458;-70
2022/05/19 06:45:24;;;;;;;5.57;5.10;;;21.10;91.10;;;;;;5039721;28;20547;-69
2022/05/19 06:47:51;;;;;;;6.30;5.80;;;21.20;90.90;;;;;;5046889;28;20453;-69
2022/05/19 06:50:17;;;;;;;5.40;5.00;;;21.30;91.00;;;;;;5049216;28;20455;-69
2022/05/19 06:52:45;;;;;;;5.30;4.80;;;21.30;91.10;;;;;;5044116;28;20461;-69
2022/05/19 06:55:13;;;;;;;5.00;4.50;;;21.30;90.90;;;;;;5035007;28;20500;-69
2022/05/19 06:57:39;;;;;;;6.30;5.70;;;21.40;91.70;;;;;;5036465;28;20841;-68
2022/05/19 07:00:07;;;;;;;5.13;4.13;;;21.50;91.40;;;;;;5036476;28;20438;-70
2022/05/19 07:02:34;;;;;;;9.13;5.07;;;21.60;91.10;;;;;;5043002;28;20493;-71
2022/05/19 07:05:00;;;;;;;4.33;3.93;;;21.70;91.30;;;;;;5033229;28;20439;-70
2022/05/19 07:07:26;;;;;;;4.30;4.00;;;21.80;91.20;;;;;;5032249;28;20501;-71
2022/05/19 07:09:51;;;;;;;4.50;4.00;;;21.90;91.20;;;;;;5032489;28;20940;-69
2022/05/19 07:12:22;;;;;;;5.53;4.20;;;22.10;91.30;;;;;;5038855;28;20238;-69
2022/05/19 07:14:49;;;;;;;6.13;4.43;;;22.20;91.20;;;;;;5041280;28;20215;-68
2022/05/19 07:17:14;;;;;;;4.83;4.43;;;22.30;91.40;;;;;;5042311;28;20603;-69
2022/05/19 07:22:24;;;;;;;5.37;4.77;;;22.40;91.00;;;;;;5042046;28;20230;-70
2022/05/19 07:24:51;;;;;;;4.57;4.13;;;22.50;91.10;;;;;;5039916;28;20454;-71
2022/05/19 07:27:17;;;;;;;4.73;4.33;;;22.60;90.80;;;;;;5038971;28;20536;-70
2022/05/19 07:29:43;;;;;;;4.73;4.20;;;22.60;90.80;;;;;;5038641;28;20450;-69
2022/05/19 07:32:09;;;;;;;4.70;4.30;;;22.60;90.60;;;;;;5037344;28;20456;-72
2022/05/19 07:34:37;;;;;;;4.90;4.10;;;22.70;90.70;;;;;;5044354;28;20596;-70
2022/05/19 07:37:04;;;;;;;4.50;4.10;;;22.80;90.60;;;;;;5049857;28;20450;-69
2022/05/19 07:39:30;;;;;;;5.60;4.40;;;22.90;90.70;;;;;;5044715;28;20461;-69
2022/05/19 07:41:56;;;;;;;4.60;4.20;;;23.00;90.80;;;;;;5041519;28;20469;-68
2022/05/19 07:44:24;;;;;;;5.07;4.27;;;23.10;90.70;;;;;;5044058;28;20457;-70
2022/05/19 07:46:50;;;;;;;5.50;4.40;;;23.20;90.70;;;;;;5042899;28;20874;-69
2022/05/19 07:49:16;;;;;;;9.30;5.30;;;23.20;90.70;;;;;;5023181;28;20482;-72
2022/05/19 07:51:44;;;;;;;5.07;4.13;;;23.40;90.90;;;;;;5033283;28;20889;-67
2022/05/19 07:54:13;;;;;;;7.43;4.43;;;23.50;91.00;;;;;;5030770;28;20457;-69
2022/05/19 07:56:39;;;;;;;5.67;4.80;;;23.60;90.80;;;;;;5041191;28;20473;-70
2022/05/19 07:59:05;;;;;;;5.33;3.90;;;23.70;90.70;;;;;;5043548;28;20466;-70
2022/05/19 08:01:32;;;;;;;5.70;4.57;;;23.80;90.10;;;;;;5045841;28;20822;-69
2022/05/19 08:03:59;;;;;;;4.37;3.90;;;23.90;89.60;;;;;;5044355;28;20906;-69
2022/05/19 08:06:27;;;;;;;4.67;4.27;;;23.90;89.50;;;;;;5057103;28;20546;-71
2022/05/19 08:08:53;;;;;;;4.10;3.80;;;24.10;89.10;;;;;;5037037;28;20451;-69
2022/05/19 08:11:19;;;;;;;4.27;3.60;;;24.10;89.10;;;;;;5036944;28;20464;-69
2022/05/19 08:16:28;;;;;;;6.50;3.53;;;24.30;88.40;;;;;;5033399;28;20223;-70
2022/05/19 08:18:55;;;;;;;4.37;4.00;;;24.30;87.90;;;;;;5035666;28;20532;-69
2022/05/19 08:21:21;;;;;;;4.07;3.73;;;24.40;88.30;;;;;;5032853;28;20254;-69
2022/05/19 08:23:52;;;;;;;6.37;4.10;;;24.50;87.90;;;;;;5028156;28;20994;-69
2022/05/19 08:26:18;;;;;;;4.87;4.30;;;24.70;87.70;;;;;;5038255;28;20949;-72
2022/05/19 08:28:45;;;;;;;4.30;3.90;;;24.80;86.80;;;;;;5029453;28;20451;-69
2022/05/19 08:31:26;;;;;;;4.70;4.40;;;24.80;86.20;;;;;;5034841;28;20458;-70
2022/05/19 08:33:54;;;;;;;3.80;3.50;;;24.90;87.00;;;;;;5037879;28;20499;-70
2022/05/19 08:36:20;;;;;;;4.10;3.67;;;25.00;87.90;;;;;;5044161;28;20449;-70
2022/05/19 08:38:47;;;;;;;3.93;3.50;;;25.00;87.00;;;;;;5039132;28;20478;-70
2022/05/19 08:41:25;;;;;;;6.27;4.10;;;25.10;87.00;;;;;;5060242;28;20470;-71
2022/05/19 08:43:59;;;;;;;7.47;4.40;;;25.30;87.20;;;;;;5034965;28;20457;-70
2022/05/19 08:46:31;;;;;;;4.50;4.10;;;25.50;86.30;;;;;;5044003;28;20485;-69
2022/05/19 08:49:23;;;;;;;4.77;4.00;;;25.50;86.40;;;;;;5039705;28;20544;-69
2022/05/19 08:52:04;;;;;;;8.13;4.13;;;25.60;86.30;;;;;;5039913;28;20456;-70
2022/05/19 08:54:32;;;;;;;4.37;3.97;;;25.70;86.40;;;;;;5011499;28;20449;-70
2022/05/19 08:57:04;;;;;;;4.80;4.37;;;25.80;86.30;;;;;;5038450;28;20461;-69
2022/05/19 09:00:00;;;;;;;5.33;4.40;;;25.90;86.10;;;;;;5044464;28;20446;-69
2022/05/19 09:03:05;;;;;;;7.00;3.57;;;25.90;85.80;;;;;;5044440;28;20474;-69
2022/05/19 09:05:53;;;;;;;4.17;3.77;;;26.00;85.20;;;;;;5038578;28;21073;-71
2022/05/19 09:08:49;;;;;;;3.50;3.20;;;26.30;83.70;;;;;;5050648;28;20544;-69
2022/05/19 09:11:28;;;;;;;3.20;3.00;;;26.30;82.90;;;;;;5054212;28;20962;-69
2022/05/19 09:14:14;;;;;;;4.40;4.00;;;26.50;83.50;;;;;;5031639;28;20583;-71
2022/05/19 09:16:42;;;;;;;3.40;3.20;;;26.60;83.20;;;;;;5017698;28;20460;-70
2022/05/19 09:19:26;;;;;;;3.87;3.50;;;26.70;83.30;;;;;;5037696;28;21004;-70
2022/05/19 09:22:11;;;;;;;4.53;3.33;;;26.90;83.30;;;;;;5036936;28;20832;-70
2022/05/19 09:24:38;;;;;;;3.87;3.53;;;26.90;83.00;;;;;;5038857;28;20222;-68
2022/05/19 09:27:04;;;;;;;4.27;3.87;;;26.90;83.10;;;;;;5044366;28;20466;-69
2022/05/19 09:29:33;;;;;;;3.33;3.13;;;27.10;82.20;;;;;;5035099;28;20234;-72
2022/05/19 09:32:15;;;;;;;3.50;3.20;;;27.30;81.70;;;;;;5041138;28;20863;-66
2022/05/19 09:34:44;;;;;;;5.43;3.80;;;27.40;80.50;;;;;;5024284;28;20575;-70
2022/05/19 09:37:16;;;;;;;3.83;3.53;;;27.40;81.10;;;;;;5040592;28;20219;-69
2022/05/19 09:39:48;;;;;;;4.28;3.88;;;27.40;81.20;;;;;;5049760;28;20224;-69
2022/05/19 09:42:23;;;;;;;3.92;3.63;;;27.70;80.70;;;;;;5017089;28;20227;-71
2022/05/19 09:44:57;;;;;;;6.38;5.38;;;27.70;80.80;;;;;;5037960;28;20796;-70
2022/05/19 09:47:36;;;;;;;4.38;3.92;;;27.80;80.50;;;;;;5038676;28;20263;-69
2022/05/19 09:50:17;;;;;;;5.78;4.30;;;27.90;80.60;;;;;;5030460;28;20793;-68
2022/05/19 09:52:44;;;;;;;3.88;3.58;;;28.00;80.80;;;;;;5016219;28;20228;-69
2022/05/19 09:55:14;;;;;;;5.30;4.22;;;28.20;80.00;;;;;;5036439;28;20714;-70
2022/05/19 09:57:52;;;;;;;4.43;4.03;;;28.30;80.10;;;;;;5035315;28;20392;-70
2022/05/19 10:00:21;;;;;;;6.90;4.75;;;28.40;79.40;;;;;;5038792;28;20600;-72
2022/05/19 10:02:52;;;;;;;3.95;3.67;;;28.40;79.80;;;;;;5043134;28;20311;-70
2022/05/19 10:05:46;;;;;;;4.90;4.18;;;28.50;79.90;;;;;;5042413;28;20579;-69
2022/05/19 10:08:25;;;;;;;4.65;4.15;;;28.70;79.40;;;;;;5027777;28;20688;-70
2022/05/19 10:11:24;;;;;;;4.53;4.13;;;28.70;79.80;;;;;;5038056;28;20224;-69
2022/05/19 10:14:04;;;;;;;3.92;3.67;;;28.80;79.70;;;;;;5042641;28;20306;-70
2022/05/19 10:16:54;;;;;;;4.50;4.10;;;29.00;78.40;;;;;;5052857;28;20286;-71
2022/05/19 10:19:33;;;;;;;4.70;4.28;;;29.10;78.50;;;;;;5041847;28;20219;-70
2022/05/19 10:22:33;;;;;;;4.50;4.10;;;29.10;78.60;;;;;;5041424;28;20219;-69
2022/05/19 10:25:13;;;;;;;4.10;3.75;;;29.20;78.50;;;;;;5037888;28;20325;-71
2022/05/19 10:31:03;;;;;;;5.70;5.30;;;29.20;78.40;;;;;;5040905;28;20223;-70
2022/05/19 10:33:41;;;;;;;7.15;4.55;;;29.30;78.70;;;;;;5043468;28;20216;-68
2022/05/19 10:36:24;;;;;;;4.18;3.78;;;29.30;78.40;;;;;;5046164;28;20211;-70
2022/05/19 10:39:21;;;;;;;4.65;3.97;;;29.30;78.30;;;;;;5027458;28;20243;-70
2022/05/19 10:42:15;;;;;;;4.13;3.83;;;29.30;78.20;;;;;;5032351;28;20708;-69
2022/05/19 10:45:02;;;;;;;4.40;4.03;;;29.30;78.60;;;;;;5040142;28;20228;-69
2022/05/19 10:47:49;;;;;;;5.47;4.10;;;29.40;78.70;;;;;;5038967;28;20230;-69
2022/05/19 10:50:30;;;;;;;4.60;4.22;;;29.40;78.80;;;;;;5052461;28;20217;-69
2022/05/19 10:52:58;;;;;;;6.43;4.65;;;29.50;78.80;;;;;;5026427;28;20232;-70
2022/05/19 10:55:49;;;;;;;6.55;4.88;;;29.70;78.50;;;;;;5038404;28;20693;-69
2022/05/19 10:58:21;;;;;;;5.70;5.30;;;29.70;78.60;;;;;;5033075;28;20750;-71
2022/05/19 11:01:11;;;;;;;5.63;4.60;;;29.60;78.50;;;;;;5034133;28;20263;-69
2022/05/19 11:03:58;;;;;;;4.80;4.50;;;29.70;78.80;;;;;;5032451;28;20237;-71
2022/05/19 11:06:56;;;;;;;5.88;4.32;;;29.80;78.90;;;;;;5032961;28;20298;-70
2022/05/19 11:09:31;;;;;;;5.00;4.60;;;29.90;78.90;;;;;;5035969;28;20212;-70
2022/05/19 11:12:02;;;;;;;5.20;4.70;;;30.00;79.10;;;;;;5039987;28;20319;-70
2022/05/19 11:14:58;;;;;;;4.78;4.38;;;30.10;79.00;;;;;;5036792;28;20221;-69
2022/05/19 11:17:58;;;;;;;7.22;4.78;;;30.20;79.40;;;;;;5032624;28;20276;-71
2022/05/19 11:20:24;;;;;;;4.97;4.57;;;30.30;78.60;;;;;;5048713;28;20213;-70
2022/05/19 11:23:03;;;;;;;5.45;5.03;;;30.40;79.00;;;;;;5052679;28;20230;-68
2022/05/19 11:28:49;;;;;;;6.60;5.07;;;30.40;78.80;;;;;;5035153;28;20229;-70
2022/05/19 11:31:30;;;;;;;5.20;4.80;;;30.40;79.20;;;;;;5044956;28;20234;-70
2022/05/19 11:33:59;;;;;;;8.40;5.25;;;30.50;78.90;;;;;;5024017;28;20226;-69
2022/05/19 11:36:36;;;;;;;5.20;4.80;;;30.50;79.00;;;;;;5033952;28;20226;-71
2022/05/19 11:39:06;;;;;;;4.95;4.65;;;30.50;78.80;;;;;;5028164;28;20314;-71
2022/05/19 11:41:36;;;;;;;5.35;4.68;;;30.60;79.10;;;;;;5016397;28;20225;-68
2022/05/19 11:44:19;;;;;;;5.43;5.03;;;30.60;79.00;;;;;;5036110;28;20256;-69
2022/05/19 11:46:54;;;;;;;5.43;5.03;;;30.60;78.80;;;;;;5034372;28;20232;-70
2022/05/19 11:55:39;;;;;;;5.15;4.68;;;30.50;79.40;;;;;;5048512;28;20226;-70
2022/05/19 11:58:11;;;;;;;6.00;5.50;;;30.50;79.90;;;;;;5043950;28;20690;-69
2022/05/19 12:00:46;;;;;;;8.13;4.93;;;30.70;79.90;;;;;;5037854;28;20226;-70
2022/05/19 12:03:17;;;;;;;5.95;5.45;;;30.70;79.80;;;;;;5035215;28;20218;-71
2022/05/19 12:06:03;;;;;;;24.02;7.90;;;30.80;79.90;;;;;;5039876;28;20296;-69
2022/05/19 12:08:39;;;;;;;5.55;5.15;;;30.80;80.00;;;;;;5045532;28;20223;-71
2022/05/19 12:11:40;;;;;;;5.80;5.40;;;30.80;80.10;;;;;;5045638;28;20241;-70
2022/05/19 12:14:15;;;;;;;7.22;5.68;;;31.00;80.10;;;;;;5041877;28;20324;-71
2022/05/19 12:16:49;;;;;;;5.60;5.22;;;31.10;80.50;;;;;;5044316;28;20229;-69
2022/05/19 12:19:41;;;;;;;7.47;5.85;;;31.10;80.00;;;;;;5033933;28;20230;-69
2022/05/19 12:22:44;;;;;;;5.43;5.03;;;31.20;79.70;;;;;;5042389;28;20292;-69
2022/05/19 12:25:16;;;;;;;6.28;5.78;;;31.30;80.00;;;;;;5043667;28;20237;-70
2022/05/19 12:27:55;;;;;;;6.55;6.05;;;31.40;80.50;;;;;;5042754;28;20757;-72
2022/05/19 12:33:36;;;;;;;6.13;5.57;;;31.60;80.90;;;;;;5054399;28;20248;-69
2022/05/19 12:36:11;;;;;;;6.45;5.40;;;31.90;81.10;;;;;;5046533;28;20289;-70
2022/05/19 12:38:43;;;;;;;7.57;5.85;;;32.00;80.60;;;;;;5042148;28;20228;-69
2022/05/19 12:41:29;;;;;;;6.00;5.20;;;32.20;79.20;;;;;;5020478;28;20642;-69
2022/05/19 12:43:58;;;;;;;11.65;5.55;;;32.30;79.60;;;;;;5041039;28;20226;-70
2022/05/19 12:46:38;;;;;;;8.88;5.82;;;32.30;79.30;;;;;;5053191;28;20280;-70
2022/05/19 12:49:18;;;;;;;6.50;5.97;;;32.50;79.00;;;;;;5036130;28;20234;-71
2022/05/19 12:51:51;;;;;;;6.45;5.95;;;32.60;79.00;;;;;;5038099;28;20237;-67
2022/05/19 12:54:19;;;;;;;6.10;5.68;;;32.60;79.00;;;;;;5043577;28;20238;-71
2022/05/19 12:56:46;;;;;;;7.20;5.47;;;32.50;78.40;;;;;;5046431;28;20282;-72
2022/05/19 12:59:38;;;;;;;5.65;5.25;;;32.50;77.90;;;;;;5023595;28;20224;-66
2022/05/19 13:02:11;;;;;;;5.22;4.90;;;32.50;78.30;;;;;;5057082;28;20235;-71
2022/05/19 13:04:43;;;;;;;6.40;5.90;;;32.60;78.90;;;;;;5037619;28;20226;-70
2022/05/19 13:07:17;;;;;;;6.72;6.22;;;32.70;78.80;;;;;;5045949;28;20227;-69
2022/05/19 13:10:01;;;;;;;6.05;5.53;;;32.80;78.60;;;;;;5042465;28;20318;-70
2022/05/19 13:12:44;;;;;;;6.43;5.80;;;33.10;77.70;;;;;;5033952;28;20237;-71
2022/05/19 13:15:10;;;;;;;6.35;5.75;;;33.10;77.50;;;;;;5035628;28;20248;-69
2022/05/19 13:17:45;;;;;;;7.18;4.93;;;33.00;77.20;;;;;;5036974;28;20448;-69
2022/05/19 13:20:18;;;;;;;5.70;5.35;;;33.00;77.60;;;;;;5044236;28;20286;-69
2022/05/19 13:22:59;;;;;;;5.57;5.18;;;33.00;77.40;;;;;;5042261;28;20274;-70
2022/05/19 13:25:26;;;;;;;6.18;5.60;;;33.00;77.50;;;;;;5040610;28;20222;-69
2022/05/19 13:30:51;;;;;;;5.75;5.20;;;33.10;77.20;;;;;;5036757;28;20238;-70
2022/05/19 13:33:28;;;;;;;5.80;5.40;;;33.10;76.60;;;;;;5040118;28;20300;-69